createdAt,value
2023-03-20T00:00:15.833Z,30.90
2023-03-20T00:04:15.989Z,30.89
2023-03-20T00:08:15.789Z,30.93
2023-03-20T00:12:23.146Z,30.91
2023-03-20T00:16:15.750Z,31.00
2023-03-20T00:20:15.607Z,30.95
2023-03-20T00:24:15.608Z,30.97
2023-03-20T00:28:15.533Z,31.00
2023-03-20T00:32:15.543Z,31.02
2023-03-20T00:36:15.483Z,30.98
2023-03-20T00:40:22.677Z,31.02
2023-03-20T00:44:15.616Z,31.05
2023-03-20T00:48:15.605Z,31.11
2023-03-20T00:52:15.524Z,31.06
2023-03-20T00:56:15.475Z,31.01
2023-03-20T01:00:15.442Z,31.04
2023-03-20T01:04:15.445Z,31.02
2023-03-20T01:08:15.381Z,31.03
2023-03-20T01:12:22.670Z,31.05
2023-03-20T01:16:15.375Z,31.06
2023-03-20T01:20:22.677Z,31.05
2023-03-20T01:24:15.294Z,31.09
2023-03-20T01:28:15.255Z,31.18
2023-03-20T01:32:15.190Z,31.11
2023-03-20T01:36:15.337Z,31.15
2023-03-20T01:40:15.123Z,31.17
2023-03-20T01:44:15.109Z,31.19
2023-03-20T01:48:15.100Z,31.12
2023-03-20T01:52:15.350Z,31.18
2023-03-20T01:56:15.389Z,31.20
2023-03-20T02:00:22.731Z,31.16
2023-03-20T02:04:15.513Z,31.10
2023-03-20T02:08:15.465Z,31.15
2023-03-20T02:12:15.430Z,31.19
2023-03-20T02:16:15.498Z,31.21
2023-03-20T02:20:15.379Z,31.19
2023-03-20T02:24:15.306Z,31.23
2023-03-20T02:28:15.372Z,31.20
2023-03-20T02:32:15.503Z,31.21
2023-03-20T02:36:15.807Z,31.20
2023-03-20T02:40:23.274Z,31.23
2023-03-20T02:44:15.803Z,31.25
2023-03-20T02:48:15.894Z,31.26
2023-03-20T02:52:15.740Z,31.23
2023-03-20T02:56:15.698Z,31.28
2023-03-20T03:00:15.652Z,31.25
2023-03-20T03:04:15.614Z,31.27
2023-03-20T03:08:15.756Z,31.21
2023-03-20T03:12:15.925Z,31.26
2023-03-20T03:16:23.409Z,31.27
2023-03-20T03:20:16.038Z,31.28
2023-03-20T03:24:18.427Z,31.28
2023-03-20T03:28:15.987Z,31.30
2023-03-20T03:32:15.920Z,31.32
2023-03-20T03:36:15.941Z,31.32
2023-03-20T03:40:15.863Z,31.34
2023-03-20T03:44:15.797Z,31.30
2023-03-20T03:48:15.772Z,31.31
2023-03-20T03:52:15.753Z,31.36
2023-03-20T03:56:15.748Z,31.33
2023-03-20T04:00:15.671Z,31.35
2023-03-20T04:04:15.711Z,31.32
2023-03-20T04:08:22.721Z,31.37
2023-03-20T04:12:15.692Z,31.41
2023-03-20T04:16:22.906Z,31.39
2023-03-20T04:20:15.557Z,31.42
2023-03-20T04:24:15.568Z,31.44
2023-03-20T04:28:15.536Z,31.39
2023-03-20T04:32:22.836Z,31.50
2023-03-20T04:36:15.512Z,31.47
2023-03-20T04:40:15.395Z,31.45
2023-03-20T04:44:15.389Z,31.48
2023-03-20T04:48:15.318Z,31.48
2023-03-20T04:52:15.279Z,31.46
2023-03-20T04:56:15.279Z,31.45
2023-03-20T05:00:15.216Z,31.44
2023-03-20T05:04:15.290Z,31.44
2023-03-20T05:08:15.355Z,31.42
2023-03-20T05:12:15.487Z,31.50
2023-03-20T05:16:15.645Z,31.47
2023-03-20T05:20:15.713Z,31.46
2023-03-20T05:24:15.803Z,31.49
2023-03-20T05:28:15.911Z,31.47
2023-03-20T05:32:16.019Z,31.53
2023-03-20T05:36:16.135Z,31.50
2023-03-20T05:40:16.148Z,31.47
2023-03-20T05:44:16.178Z,31.48
2023-03-20T05:48:16.283Z,31.51
2023-03-20T05:52:16.380Z,31.46
2023-03-20T05:56:23.930Z,31.50
2023-03-20T06:00:16.441Z,31.54
2023-03-20T06:04:16.393Z,31.56
2023-03-20T06:08:16.388Z,36.72
2023-03-20T06:12:23.437Z,34.17
2023-03-20T06:16:16.336Z,33.46
2023-03-20T06:20:16.217Z,33.58
2023-03-20T06:24:16.195Z,33.55
2023-03-20T06:28:16.167Z,33.66
2023-03-20T06:32:16.134Z,33.67
2023-03-20T06:36:16.115Z,33.78
2023-03-20T06:40:16.041Z,34.08
2023-03-20T06:44:16.087Z,34.87
2023-03-20T06:48:16.305Z,35.86
2023-03-20T06:52:16.413Z,37.03
2023-03-20T06:56:16.618Z,36.89
2023-03-20T07:00:16.751Z,38.14
2023-03-20T07:04:16.870Z,38.12
2023-03-20T07:08:16.911Z,38.04
2023-03-20T07:12:17.071Z,38.01
2023-03-20T07:16:17.276Z,38.19
2023-03-20T07:20:17.357Z,38.13
2023-03-20T07:24:17.427Z,38.37
2023-03-20T07:28:17.568Z,38.65
2023-03-20T07:32:17.603Z,38.54
2023-03-20T07:36:17.647Z,38.85
2023-03-20T07:40:17.665Z,38.96
2023-03-20T07:44:17.827Z,38.92
2023-03-20T07:48:18.035Z,38.27
2023-03-20T07:52:18.180Z,36.25
2023-03-20T07:56:18.305Z,37.58
2023-03-20T08:00:18.442Z,38.53
2023-03-20T08:04:18.731Z,38.58
2023-03-20T08:10:37.210Z,39.16
2023-03-20T08:14:37.176Z,39.12
2023-03-20T08:18:37.109Z,40.09
2023-03-20T08:22:37.095Z,39.79
2023-03-20T08:26:37.080Z,35.57
2023-03-20T08:30:44.044Z,36.13
2023-03-20T08:34:36.991Z,37.08
2023-03-20T08:38:36.985Z,37.53
2023-03-20T08:42:36.944Z,35.75
2023-03-20T08:46:36.901Z,35.72
2023-03-20T08:50:36.868Z,36.90
2023-03-20T08:54:36.849Z,37.77
2023-03-20T08:58:36.782Z,38.05
2023-03-20T09:02:36.847Z,38.37
2023-03-20T09:06:36.846Z,38.67
2023-03-20T09:10:37.020Z,38.90
2023-03-20T09:14:37.082Z,39.01
2023-03-20T09:18:37.128Z,39.24
2023-03-20T09:22:37.196Z,39.63
2023-03-20T09:26:37.281Z,40.08
2023-03-20T09:30:37.885Z,39.94
2023-03-20T09:34:37.518Z,40.05
2023-03-20T09:38:37.608Z,40.90
2023-03-20T09:42:37.801Z,40.60
2023-03-20T09:46:37.862Z,40.98
2023-03-20T09:50:38.401Z,39.55
2023-03-20T09:54:53.268Z,39.71
2023-03-20T09:58:39.098Z,41.07
2023-03-20T10:02:38.464Z,40.14
2023-03-20T10:06:37.988Z,40.24
2023-03-20T10:10:45.500Z,40.57
2023-03-20T10:14:37.882Z,41.09
2023-03-20T10:18:37.853Z,41.61
2023-03-20T10:22:37.828Z,42.03
2023-03-20T10:26:37.775Z,42.63
2023-03-20T10:30:38.134Z,42.78
2023-03-20T10:34:37.893Z,43.17
2023-03-20T10:38:38.021Z,43.42
2023-03-20T10:42:38.089Z,43.77
2023-03-20T10:46:38.191Z,44.01
2023-03-20T10:50:38.311Z,44.17
2023-03-20T10:54:38.423Z,43.86
2023-03-20T10:58:38.572Z,43.62
2023-03-20T11:02:38.748Z,42.97
2023-03-20T11:06:38.953Z,42.58
2023-03-20T11:10:38.978Z,42.12
2023-03-20T11:14:39.040Z,41.84
2023-03-20T11:18:39.099Z,41.57
2023-03-20T11:22:39.183Z,41.37
2023-03-20T11:26:39.260Z,41.04
2023-03-20T11:30:39.363Z,40.79
2023-03-20T11:34:39.447Z,40.49
2023-03-20T11:38:39.522Z,40.30
2023-03-20T11:42:39.619Z,39.77
2023-03-20T11:46:39.697Z,39.77
2023-03-20T11:50:39.855Z,40.07
2023-03-20T11:54:39.889Z,40.33
2023-03-20T11:58:39.926Z,40.74
2023-03-20T12:02:40.056Z,41.10
2023-03-20T12:06:40.069Z,41.04
2023-03-20T12:10:40.257Z,41.41
2023-03-20T12:17:40.970Z,41.72
2023-03-20T12:21:40.944Z,41.61
2023-03-20T12:25:40.898Z,41.98
2023-03-20T12:29:40.884Z,41.93
2023-03-20T12:33:40.885Z,41.89
2023-03-20T12:37:40.805Z,41.24
2023-03-20T12:41:40.767Z,40.98
2023-03-20T12:45:42.170Z,40.53
2023-03-20T12:49:40.729Z,40.24
2023-03-20T12:53:41.226Z,40.11
2023-03-20T12:57:40.630Z,40.00
2023-03-20T13:01:40.668Z,40.02
2023-03-20T13:05:40.514Z,40.00
2023-03-20T13:09:40.529Z,39.83
2023-03-20T13:13:40.465Z,39.71
2023-03-20T13:17:40.460Z,39.57
2023-03-20T13:21:40.412Z,39.54
2023-03-20T13:25:40.362Z,39.46
2023-03-20T13:29:40.354Z,39.36
2023-03-20T13:33:40.311Z,39.30
2023-03-20T13:37:40.287Z,39.23
2023-03-20T13:41:40.244Z,38.99
2023-03-20T13:45:40.248Z,38.78
2023-03-20T13:49:40.272Z,38.60
2023-03-20T13:53:40.325Z,38.49
2023-03-20T13:57:47.755Z,38.37
2023-03-20T14:01:47.765Z,38.30
2023-03-20T14:05:40.287Z,38.21
2023-03-20T14:09:40.268Z,38.14
2023-03-20T14:13:40.248Z,38.02
2023-03-20T14:17:40.229Z,37.96
2023-03-20T14:21:40.209Z,37.88
2023-03-20T14:25:40.665Z,37.78
2023-03-20T14:29:40.063Z,37.64
2023-03-20T14:33:40.181Z,37.59
2023-03-20T14:37:47.813Z,37.45
2023-03-20T14:41:40.253Z,37.35
2023-03-20T14:45:40.221Z,37.24
2023-03-20T14:49:47.326Z,37.15
2023-03-20T14:53:40.132Z,37.09
2023-03-20T14:57:55.528Z,37.01
2023-03-20T15:01:41.046Z,36.94
2023-03-20T15:05:40.023Z,36.89
2023-03-20T15:09:39.989Z,36.78
2023-03-20T15:13:40.016Z,36.75
2023-03-20T15:17:40.121Z,36.65
2023-03-20T15:21:40.224Z,36.59
2023-03-20T15:25:40.318Z,36.43
2023-03-20T15:29:40.433Z,36.39
2023-03-20T15:33:40.575Z,36.31
2023-03-20T15:37:40.694Z,36.28
2023-03-20T15:41:48.351Z,36.15
2023-03-20T15:45:40.764Z,36.10
2023-03-20T15:49:40.735Z,36.05
2023-03-20T15:53:40.727Z,35.95
2023-03-20T15:57:40.673Z,35.90
2023-03-20T16:01:40.612Z,35.85
2023-03-20T16:05:40.691Z,35.84
2023-03-20T16:09:40.817Z,35.74
2023-03-20T16:13:40.894Z,35.70
2023-03-20T16:17:48.034Z,35.66
2023-03-20T16:21:40.957Z,35.57
2023-03-20T16:25:41.380Z,35.51
2023-03-20T16:29:40.892Z,35.44
2023-03-20T16:33:40.878Z,35.42
2023-03-20T16:37:47.886Z,35.38
2023-03-20T16:41:40.837Z,35.36
2023-03-20T16:45:43.035Z,35.31
2023-03-20T16:49:40.703Z,35.31
2023-03-20T16:53:40.644Z,35.28
2023-03-20T16:57:40.636Z,35.19
2023-03-20T17:01:40.585Z,35.18
2023-03-20T17:05:40.535Z,35.14
2023-03-20T17:09:40.553Z,35.08
2023-03-20T17:13:40.474Z,35.01
2023-03-20T17:17:40.465Z,34.97
2023-03-20T17:21:40.433Z,34.93
2023-03-20T17:25:40.428Z,34.89
2023-03-20T17:29:40.372Z,34.85
2023-03-20T17:33:40.300Z,34.81
2023-03-20T17:37:40.272Z,34.74
2023-03-20T17:41:40.332Z,34.72
2023-03-20T17:45:40.933Z,34.74
2023-03-20T17:49:40.508Z,34.69
2023-03-20T17:53:40.649Z,34.63
2023-03-20T17:57:40.752Z,34.61
2023-03-20T18:01:40.824Z,34.59
2023-03-20T18:05:40.938Z,34.53
2023-03-20T18:09:41.050Z,34.53
2023-03-20T18:13:41.158Z,34.51
2023-03-20T18:17:41.223Z,34.44
2023-03-20T18:21:48.470Z,34.40
2023-03-20T18:25:41.289Z,34.37
2023-03-20T18:29:41.249Z,34.37
2023-03-20T18:33:41.240Z,34.34
2023-03-20T18:37:41.221Z,34.30
2023-03-20T18:41:41.168Z,34.24
2023-03-20T18:45:41.113Z,34.26
2023-03-20T18:49:41.048Z,34.23
2023-03-20T18:53:41.169Z,34.20
2023-03-20T18:57:43.080Z,34.12
2023-03-20T19:01:41.323Z,34.11
2023-03-20T19:05:41.338Z,34.05
2023-03-20T19:09:41.449Z,34.02
2023-03-20T19:13:41.975Z,34.02
2023-03-20T19:17:41.705Z,33.94
2023-03-20T19:21:41.813Z,33.94
2023-03-20T19:30:00.958Z,33.92
2023-03-20T19:34:01.692Z,33.88
2023-03-20T19:38:00.888Z,33.84
2023-03-20T19:42:15.255Z,33.81
2023-03-20T19:46:01.813Z,33.76
2023-03-20T19:50:00.755Z,33.74
2023-03-20T19:54:00.768Z,33.72
2023-03-20T19:58:08.203Z,33.64
2023-03-20T20:02:00.796Z,33.61
2023-03-20T20:06:00.615Z,33.57
2023-03-20T20:10:00.568Z,33.55
2023-03-20T20:14:09.833Z,33.54
2023-03-20T20:18:01.505Z,33.50
2023-03-20T20:22:28.275Z,33.46
2023-03-20T20:26:01.467Z,33.45
2023-03-20T20:30:00.386Z,33.41
2023-03-20T20:34:51.184Z,33.36
2023-03-20T20:42:01.293Z,33.29
2023-03-20T20:46:07.724Z,33.26
2023-03-20T20:50:00.202Z,33.23
2023-03-20T20:54:00.157Z,33.24
2023-03-20T20:58:07.717Z,33.21
2023-03-20T21:02:00.137Z,33.17
2023-03-20T21:06:00.078Z,33.15
2023-03-20T21:10:00.023Z,33.11
2023-03-20T21:13:59.981Z,33.09
2023-03-20T21:18:06.969Z,33.06
2023-03-20T21:21:59.915Z,33.10
2023-03-20T21:25:59.848Z,33.03
2023-03-20T21:29:59.810Z,33.01
2023-03-20T21:33:59.844Z,32.94
2023-03-20T21:38:53.630Z,32.90
2023-03-20T21:42:00.724Z,32.88
2023-03-20T21:46:34.088Z,32.84
2023-03-20T22:02:24.616Z,32.73
2023-03-20T22:11:14.648Z,32.68
2023-03-20T22:42:49.665Z,32.36
2023-03-20T22:46:47.812Z,32.32
2023-03-20T22:50:19.223Z,32.28
2023-03-20T22:54:25.187Z,32.24
2023-03-20T22:58:18.105Z,32.21
2023-03-20T23:02:18.075Z,32.21
2023-03-20T23:06:18.020Z,32.18
2023-03-20T23:10:18.020Z,32.20
2023-03-20T23:14:21.666Z,32.16
2023-03-20T23:18:17.913Z,32.14
2023-03-20T23:22:17.910Z,32.07
2023-03-20T23:26:17.884Z,32.06
2023-03-20T23:30:27.539Z,32.00
2023-03-20T23:34:18.805Z,32.00
2023-03-20T23:38:17.750Z,31.98
2023-03-20T23:42:29.973Z,31.97
2023-03-20T23:46:18.711Z,31.97
2023-03-20T23:50:28.570Z,31.95
2023-03-20T23:54:24.894Z,31.91
2023-03-20T23:58:17.578Z,31.87
